Time;durP1;ratioP1;P1;durP2;ratioP2;P2;SDS_P1;SDS_P2;PMS_P1;PMS_P2;Temp;Humidity;BMP_temperature;BMP_pressure;BME280_temperature;BME280_humidity;BME280_pressure;Samples;Min_cycle;Max_cycle;Signal;HPM_P1;HPM_P2
2022/12/15 00:40:58;;;;;;;;;;;19.10;39.10;;;;;;5095884;28;19927;-61
2022/12/15 00:43:25;;;;;;;;;;;19.10;39.10;;;;;;5116170;28;19920;-61
2022/12/15 00:48:36;;;;;;;;;;;19.10;39.10;;;;;;5098678;28;20373;-61
2022/12/15 00:51:02;;;;;;;;;;;19.10;39.10;;;;;;5114641;28;19920;-60
2022/12/15 01:20:56;;;;;;;;;;;19.10;39.20;;;;;;5095052;28;19920;-61
2022/12/15 01:23:23;;;;;;;;;;;19.00;39.10;;;;;;5097757;28;20029;-61
2022/12/15 01:25:51;;;;;;;;;;;19.00;39.10;;;;;;5095269;28;19919;-60
2022/12/15 01:28:18;;;;;;;;;;;19.00;39.10;;;;;;5097271;28;19927;-61
2022/12/15 01:30:45;;;;;;;;;;;19.00;39.10;;;;;;5113555;28;19969;-61
2022/12/15 01:33:12;;;;;;;;;;;19.00;39.20;;;;;;5090279;28;19965;-60
2022/12/15 01:35:38;;;;;;;;;;;19.00;39.20;;;;;;5079390;28;19919;-60
2022/12/15 01:38:05;;;;;;;;;;;19.00;39.80;;;;;;5097294;28;19930;-60
2022/12/15 01:40:46;;;;;;;;;;;19.00;39.20;;;;;;5092275;28;19920;-60
2022/12/15 01:43:14;;;;;;;;;;;19.00;39.20;;;;;;5096756;28;19927;-59
2022/12/15 01:45:46;;;;;;;;;;;19.00;39.20;;;;;;5094308;28;19920;-60
2022/12/15 01:48:13;;;;;;;;;;;19.00;39.20;;;;;;5097823;28;20018;-61
2022/12/15 01:50:43;;;;;;;;;;;19.00;39.20;;;;;;5089984;28;19920;-60
2022/12/15 01:53:10;;;;;;;;;;;19.00;39.20;;;;;;5077007;28;20430;-61
2022/12/15 01:55:37;;;;;;;;;;;19.00;39.20;;;;;;5077220;28;19920;-61
2022/12/15 01:58:05;;;;;;;;;;;19.00;39.20;;;;;;5093852;28;19968;-60
2022/12/15 02:08:16;;;;;;;;;;;19.00;39.20;;;;;;5067743;22;19981;-63
2022/12/15 02:10:48;;;;;;;;;;;19.00;39.20;;;;;;5085370;28;19924;-63
2022/12/15 02:13:15;;;;;;;;;;;19.00;39.20;;;;;;5059202;28;20000;-62
2022/12/15 02:15:43;;;;;;;;;;;19.00;39.30;;;;;;5067633;28;20027;-63
2022/12/15 02:18:10;;;;;;;;;;;19.00;39.30;;;;;;5068101;28;20012;-61
2022/12/15 02:20:44;;;;;;;;;;;19.00;39.30;;;;;;5064768;28;20011;-67
2022/12/15 02:23:27;;;;;;;;;;;19.00;39.30;;;;;;5067346;28;20362;-62
2022/12/15 02:26:06;;;;;;;;;;;19.00;39.30;;;;;;5063027;28;19948;-62
2022/12/15 02:28:37;;;;;;;;;;;19.00;39.30;;;;;;5065457;28;19928;-61
2022/12/15 02:33:50;;;;;;;;;;;19.00;39.30;;;;;;5053502;28;20011;-62
2022/12/15 02:36:18;;;;;;;;;;;19.00;39.30;;;;;;5065540;28;19998;-63
2022/12/15 02:38:45;;;;;;;;;;;19.00;39.90;;;;;;5065313;28;19932;-65
2022/12/15 02:41:32;;;;;;;;;;;19.00;39.30;;;;;;5062489;28;19924;-64
2022/12/15 02:44:02;;;;;;;;;;;19.00;39.30;;;;;;5063161;28;20370;-63
2022/12/15 02:46:31;;;;;;;;;;;19.00;39.30;;;;;;5058155;28;19928;-61
2022/12/15 02:49:00;;;;;;;;;;;19.00;39.30;;;;;;5047269;28;20336;-61
2022/12/15 02:51:31;;;;;;;;;;;19.00;39.30;;;;;;5063230;28;19947;-65
2022/12/15 02:54:09;;;;;;;;;;;19.00;39.30;;;;;;5065045;28;19970;-62
2022/12/15 02:56:38;;;;;;;;;;;19.00;39.30;;;;;;5049819;28;19963;-62
2022/12/15 02:59:09;;;;;;;;;;;19.00;39.30;;;;;;5049408;28;19925;-67
2022/12/15 03:01:38;;;;;;;;;;;19.00;39.30;;;;;;5046537;28;19925;-65
2022/12/15 03:04:06;;;;;;;;;;;19.00;39.30;;;;;;5030446;28;20388;-65
2022/12/15 03:06:32;;;;;;;;;;;19.00;39.30;;;;;;5061154;28;19960;-63
2022/12/15 03:08:59;;;;;;;;;;;18.90;39.30;;;;;;5062336;28;19979;-62
2022/12/15 03:11:26;;;;;;;;;;;19.00;39.30;;;;;;5049307;28;19925;-65
2022/12/15 03:13:53;;;;;;;;;;;18.90;39.30;;;;;;5050198;28;19944;-62
2022/12/15 03:16:20;;;;;;;;;;;18.90;39.30;;;;;;5051475;28;19941;-65
2022/12/15 03:18:48;;;;;;;;;;;18.90;39.30;;;;;;5065972;28;19928;-61
2022/12/15 03:21:15;;;;;;;;;;;18.90;39.30;;;;;;5049435;28;19925;-64
2022/12/15 03:23:41;;;;;;;;;;;18.90;39.30;;;;;;5049474;28;20019;-63
2022/12/15 03:26:08;;;;;;;;;;;18.90;39.30;;;;;;5059886;28;19929;-64
2022/12/15 03:28:35;;;;;;;;;;;18.90;39.30;;;;;;5051473;28;19925;-62
2022/12/15 03:31:07;;;;;;;;;;;18.90;39.30;;;;;;5069462;28;19929;-62
2022/12/15 03:33:34;;;;;;;;;;;18.90;39.30;;;;;;5069401;28;19962;-69
2022/12/15 03:36:02;;;;;;;;;;;18.90;39.30;;;;;;5067053;28;20018;-63
2022/12/15 03:38:29;;;;;;;;;;;18.90;39.30;;;;;;5061012;28;20553;-62
2022/12/15 03:40:56;;;;;;;;;;;18.90;39.30;;;;;;5053912;28;20022;-63
2022/12/15 03:43:23;;;;;;;;;;;18.90;39.30;;;;;;5060551;28;19982;-65
2022/12/15 03:45:49;;;;;;;;;;;18.90;39.30;;;;;;5053620;28;20572;-63
2022/12/15 03:48:16;;;;;;;;;;;18.90;39.30;;;;;;5053466;28;19925;-61
2022/12/15 03:50:43;;;;;;;;;;;18.90;39.30;;;;;;5068794;28;19998;-62
2022/12/15 03:53:11;;;;;;;;;;;18.90;39.30;;;;;;5053626;28;19995;-63
2022/12/15 03:55:41;;;;;;;;;;;18.90;39.40;;;;;;5049130;28;20846;-62
2022/12/15 03:58:08;;;;;;;;;;;18.90;39.30;;;;;;5068693;28;19929;-62
2022/12/15 04:00:35;;;;;;;;;;;18.90;39.30;;;;;;5038128;28;19970;-62
2022/12/15 04:03:01;;;;;;;;;;;18.90;39.40;;;;;;5053000;28;19982;-64
2022/12/15 04:05:29;;;;;;;;;;;18.90;39.40;;;;;;5052326;28;20369;-66
2022/12/15 04:07:56;;;;;;;;;;;18.90;39.40;;;;;;5052586;28;19925;-63
2022/12/15 04:10:24;;;;;;;;;;;18.90;39.40;;;;;;5067112;28;19971;-66
2022/12/15 04:12:56;;;;;;;;;;;18.90;39.40;;;;;;5063992;28;19925;-63
2022/12/15 04:15:23;;;;;;;;;;;18.90;39.40;;;;;;5046910;28;20019;-63
2022/12/15 04:17:49;;;;;;;;;;;18.90;39.40;;;;;;5049570;28;19932;-63
2022/12/15 04:20:15;;;;;;;;;;;18.90;39.40;;;;;;5046395;28;19964;-63
2022/12/15 04:22:42;;;;;;;;;;;18.90;39.40;;;;;;5062675;28;19960;-67
2022/12/15 05:33:44;;;;;;;;;;;18.90;39.50;;;;;;5066634;28;20390;-62
2022/12/15 05:36:11;;;;;;;;;;;18.90;39.50;;;;;;5052228;28;19978;-63
2022/12/15 05:38:38;;;;;;;;;;;18.90;39.50;;;;;;5050207;28;19971;-62
2022/12/15 05:41:04;;;;;;;;;;;18.90;39.50;;;;;;5061446;28;19925;-64
2022/12/15 05:43:31;;;;;;;;;;;18.90;39.50;;;;;;5067115;28;19947;-62
2022/12/15 05:46:02;;;;;;;;;;;18.90;39.50;;;;;;5050969;28;19968;-64
2022/12/15 05:48:29;;;;;;;;;;;18.90;39.50;;;;;;5050498;28;19974;-63
2022/12/15 05:50:57;;;;;;;;;;;18.90;39.50;;;;;;5066063;28;19929;-62
2022/12/15 05:53:24;;;;;;;;;;;18.90;39.50;;;;;;5062518;28;19933;-63
2022/12/15 05:55:51;;;;;;;;;;;18.90;39.70;;;;;;5050862;28;19925;-63
2022/12/15 05:58:18;;;;;;;;;;;18.90;39.60;;;;;;5067269;28;20039;-64
2022/12/15 06:00:44;;;;;;;;;;;18.90;39.60;;;;;;5065783;28;19947;-63
2022/12/15 06:03:11;;;;;;;;;;;18.90;39.50;;;;;;5066761;28;19962;-63
2022/12/15 06:05:39;;;;;;;;;;;18.90;39.50;;;;;;5050621;28;19929;-63
2022/12/15 06:08:07;;;;;;;;;;;18.90;39.60;;;;;;5048250;28;19928;-63
2022/12/15 06:10:34;;;;;;;;;;;18.90;39.60;;;;;;5045601;28;19936;-63
2022/12/15 06:13:00;;;;;;;;;;;18.90;39.50;;;;;;5053062;28;19925;-62
2022/12/15 06:15:27;;;;;;;;;;;18.90;39.60;;;;;;5062041;28;19952;-61
2022/12/15 06:17:54;;;;;;;;;;;18.90;39.60;;;;;;5062509;28;19947;-62
2022/12/15 06:20:21;;;;;;;;;;;18.90;39.60;;;;;;5049043;28;20401;-64
2022/12/15 06:22:48;;;;;;;;;;;18.90;39.60;;;;;;5035584;28;19925;-65
2022/12/15 06:25:17;;;;;;;;;;;18.90;39.60;;;;;;5065005;28;19929;-62
2022/12/15 06:27:43;;;;;;;;;;;18.90;39.60;;;;;;5053750;28;20094;-62
2022/12/15 06:30:11;;;;;;;;;;;18.90;39.60;;;;;;5056964;28;19932;-62
2022/12/15 06:32:37;;;;;;;;;;;18.90;39.60;;;;;;5051363;28;19936;-62
2022/12/15 06:35:04;;;;;;;;;;;18.90;39.60;;;;;;5065733;28;19955;-62
2022/12/15 06:37:31;;;;;;;;;;;18.90;39.60;;;;;;5065602;28;19929;-61
2022/12/15 06:39:58;;;;;;;;;;;18.90;39.60;;;;;;5066292;28;19933;-61
2022/12/15 06:42:26;;;;;;;;;;;18.90;39.60;;;;;;5065609;28;19932;-61
2022/12/15 06:44:53;;;;;;;;;;;18.90;40.30;;;;;;5037773;28;19933;-60
2022/12/15 06:47:19;;;;;;;;;;;18.90;39.60;;;;;;5065124;28;19925;-62
2022/12/15 06:49:46;;;;;;;;;;;18.90;39.60;;;;;;5050527;28;19925;-63
2022/12/15 06:52:13;;;;;;;;;;;18.90;39.60;;;;;;5050089;28;19963;-62
2022/12/15 06:54:40;;;;;;;;;;;18.90;39.60;;;;;;5049116;28;19978;-62
2022/12/15 06:57:06;;;;;;;;;;;18.90;39.60;;;;;;5050997;28;19978;-62
2022/12/15 06:59:34;;;;;;;;;;;18.80;39.50;;;;;;5058939;28;19980;-62
2022/12/15 07:02:01;;;;;;;;;;;18.80;39.40;;;;;;5036349;28;20471;-61
2022/12/15 07:04:29;;;;;;;;;;;18.80;39.40;;;;;;5054253;28;19971;-62
2022/12/15 07:06:55;;;;;;;;;;;18.80;39.40;;;;;;5049656;28;20474;-61
2022/12/15 07:09:24;;;;;;;;;;;18.80;39.30;;;;;;5050835;28;19978;-62
2022/12/15 07:11:51;;;;;;;;;;;18.80;39.30;;;;;;5052051;28;19928;-62
2022/12/15 07:14:18;;;;;;;;;;;18.80;39.30;;;;;;5070053;28;19940;-63
2022/12/15 07:16:46;;;;;;;;;;;18.80;39.20;;;;;;5049590;28;19925;-61
2022/12/15 07:19:13;;;;;;;;;;;18.80;39.20;;;;;;5047284;28;20034;-62
2022/12/15 07:21:41;;;;;;;;;;;18.80;39.20;;;;;;5069799;28;19925;-62
2022/12/15 07:24:09;;;;;;;;;;;18.80;39.20;;;;;;5054471;28;19974;-62
2022/12/15 07:26:36;;;;;;;;;;;18.80;39.20;;;;;;5069019;28;19978;-61
2022/12/15 07:29:02;;;;;;;;;;;18.80;39.10;;;;;;5069238;28;19978;-62
2022/12/15 07:31:29;;;;;;;;;;;18.80;39.10;;;;;;5052856;28;19960;-63
2022/12/15 07:33:58;;;;;;;;;;;18.80;39.10;;;;;;5066018;28;20080;-63
2022/12/15 07:36:27;;;;;;;;;;;18.80;39.70;;;;;;5053595;28;20055;-64
2022/12/15 07:38:57;;;;;;;;;;;18.80;39.10;;;;;;5069626;28;19937;-62
2022/12/15 07:41:23;;;;;;;;;;;18.80;39.10;;;;;;5053608;28;20253;-66
2022/12/15 07:43:50;;;;;;;;;;;18.80;39.10;;;;;;5050924;28;19929;-61
2022/12/15 07:46:17;;;;;;;;;;;18.80;39.10;;;;;;5052517;28;19991;-60
2022/12/15 07:48:44;;;;;;;;;;;18.80;39.10;;;;;;5049825;28;19983;-62
2022/12/15 07:51:12;;;;;;;;;;;18.80;39.00;;;;;;5051590;28;19925;-60
2022/12/15 07:53:39;;;;;;;;;;;18.80;39.00;;;;;;5066226;28;20022;-62
2022/12/15 07:56:06;;;;;;;;;;;18.80;39.00;;;;;;5050959;28;20031;-66
2022/12/15 07:58:33;;;;;;;;;;;18.80;39.00;;;;;;5040975;28;19947;-61
2022/12/15 08:01:00;;;;;;;;;;;18.80;39.00;;;;;;5051202;28;19924;-62
2022/12/15 08:03:26;;;;;;;;;;;18.80;39.00;;;;;;5038876;28;19932;-62
2022/12/15 08:05:53;;;;;;;;;;;18.80;39.00;;;;;;5067156;28;19940;-62
2022/12/15 08:08:21;;;;;;;;;;;18.80;39.00;;;;;;5051733;28;19925;-62
2022/12/15 08:10:48;;;;;;;;;;;18.80;39.00;;;;;;5063222;28;19940;-64
2022/12/15 08:13:15;;;;;;;;;;;18.80;39.00;;;;;;5053076;28;19924;-61
2022/12/15 08:15:42;;;;;;;;;;;18.80;39.00;;;;;;5064427;28;19925;-62
2022/12/15 08:18:09;;;;;;;;;;;18.80;39.00;;;;;;5065743;28;19925;-62
2022/12/15 08:20:36;;;;;;;;;;;18.80;39.00;;;;;;5064431;28;19931;-61
2022/12/15 08:23:02;;;;;;;;;;;18.80;39.00;;;;;;5069338;28;19924;-62
2022/12/15 08:25:31;;;;;;;;;;;18.80;39.00;;;;;;5051913;28;19933;-61
2022/12/15 08:27:58;;;;;;;;;;;18.80;39.00;;;;;;5062928;28;19975;-61
2022/12/15 08:30:25;;;;;;;;;;;18.80;39.00;;;;;;5060450;28;19928;-63
2022/12/15 08:32:51;;;;;;;;;;;18.80;39.00;;;;;;5043684;28;19990;-63
2022/12/15 08:35:18;;;;;;;;;;;18.80;39.00;;;;;;5046038;28;19928;-63
2022/12/15 08:37:45;;;;;;;;;;;18.80;39.00;;;;;;5044902;28;19971;-63
2022/12/15 08:40:12;;;;;;;;;;;18.80;39.00;;;;;;5049528;28;20011;-63
2022/12/15 08:42:40;;;;;;;;;;;18.80;39.00;;;;;;5067695;28;19929;-62
2022/12/15 08:45:07;;;;;;;;;;;18.80;39.00;;;;;;5046358;28;19933;-68
2022/12/15 08:47:34;;;;;;;;;;;18.80;39.00;;;;;;5042255;28;20386;-62
2022/12/15 08:50:01;;;;;;;;;;;18.80;39.00;;;;;;5049012;28;19972;-63
2022/12/15 08:52:28;;;;;;;;;;;18.80;39.00;;;;;;5063763;28;19975;-62
2022/12/15 08:54:54;;;;;;;;;;;18.80;39.00;;;;;;5051588;28;19928;-61
2022/12/15 08:57:21;;;;;;;;;;;18.80;39.10;;;;;;5068479;28;19982;-61
2022/12/15 08:59:49;;;;;;;;;;;18.80;39.00;;;;;;5052697;28;19925;-62
2022/12/15 09:02:16;;;;;;;;;;;18.80;39.10;;;;;;5052301;28;19933;-63
2022/12/15 09:04:44;;;;;;;;;;;18.80;39.10;;;;;;5051760;28;19932;-62
2022/12/15 09:07:10;;;;;;;;;;;18.80;39.10;;;;;;5049487;28;19948;-62
2022/12/15 09:09:37;;;;;;;;;;;18.80;39.10;;;;;;5068435;28;19932;-63
2022/12/15 09:12:04;;;;;;;;;;;18.80;39.10;;;;;;5051355;28;20340;-63
2022/12/15 09:14:31;;;;;;;;;;;18.80;39.70;;;;;;5042440;28;19979;-62
2022/12/15 09:16:59;;;;;;;;;;;18.80;39.10;;;;;;5050445;28;19990;-64
2022/12/15 09:19:26;;;;;;;;;;;18.80;39.10;;;;;;5062723;28;19929;-64
2022/12/15 09:21:53;;;;;;;;;;;18.80;39.10;;;;;;5051524;28;19928;-62
2022/12/15 09:24:20;;;;;;;;;;;18.80;39.20;;;;;;5051757;28;19978;-61
2022/12/15 09:26:47;;;;;;;;;;;18.80;39.20;;;;;;5050953;28;20316;-61
2022/12/15 09:29:14;;;;;;;;;;;18.80;39.10;;;;;;5052341;28;19960;-62
2022/12/15 09:31:43;;;;;;;;;;;18.80;39.20;;;;;;5050258;28;19931;-61
2022/12/15 09:34:12;;;;;;;;;;;18.80;39.20;;;;;;5050865;28;19990;-61
2022/12/15 09:36:39;;;;;;;;;;;18.80;39.20;;;;;;5068432;28;19932;-63
2022/12/15 09:39:06;;;;;;;;;;;18.80;39.20;;;;;;5050948;28;20451;-62
2022/12/15 09:41:33;;;;;;;;;;;18.80;39.20;;;;;;5055897;28;19940;-62
2022/12/15 09:44:01;;;;;;;;;;;18.80;39.20;;;;;;5052584;28;19925;-62
2022/12/15 09:46:31;;;;;;;;;;;18.80;39.20;;;;;;5067781;28;19928;-61
2022/12/15 09:48:58;;;;;;;;;;;18.80;39.20;;;;;;5050778;28;19986;-61
2022/12/15 09:51:29;;;;;;;;;;;18.80;39.20;;;;;;5035564;28;19929;-62
2022/12/15 09:53:56;;;;;;;;;;;18.80;39.30;;;;;;5064785;28;20374;-62
2022/12/15 09:56:23;;;;;;;;;;;18.80;39.30;;;;;;5049950;28;19955;-61
2022/12/15 09:58:51;;;;;;;;;;;18.80;39.30;;;;;;5049908;28;20501;-62
2022/12/15 10:01:20;;;;;;;;;;;18.80;39.30;;;;;;5041670;28;19974;-61
2022/12/15 10:03:50;;;;;;;;;;;18.80;39.30;;;;;;5039923;28;19931;-65
2022/12/15 10:06:18;;;;;;;;;;;18.80;39.30;;;;;;5066504;28;19936;-62
2022/12/15 10:08:47;;;;;;;;;;;18.80;39.30;;;;;;5051219;28;20023;-62
2022/12/15 10:11:16;;;;;;;;;;;18.80;39.30;;;;;;5050770;28;19924;-62
2022/12/15 10:13:44;;;;;;;;;;;18.80;39.30;;;;;;5050024;28;19925;-62
2022/12/15 10:16:15;;;;;;;;;;;18.80;39.30;;;;;;5048114;28;19928;-66
2022/12/15 10:18:45;;;;;;;;;;;18.80;39.30;;;;;;5066793;28;19925;-62
2022/12/15 10:21:13;;;;;;;;;;;18.80;39.30;;;;;;5051461;28;19948;-62
2022/12/15 10:23:39;;;;;;;;;;;18.80;39.40;;;;;;5049323;28;20023;-62
2022/12/15 10:26:14;;;;;;;;;;;18.80;39.30;;;;;;5065551;28;19982;-61
2022/12/15 10:28:48;;;;;;;;;;;18.80;39.40;;;;;;5065527;28;19925;-63
2022/12/15 10:31:16;;;;;;;;;;;18.80;39.40;;;;;;5030912;28;19952;-62
2022/12/15 10:33:44;;;;;;;;;;;18.80;39.40;;;;;;5051247;28;19925;-64
2022/12/15 10:36:11;;;;;;;;;;;18.80;39.40;;;;;;5061784;28;19936;-62
2022/12/15 10:38:39;;;;;;;;;;;18.80;39.40;;;;;;5048531;28;19929;-62
2022/12/15 10:41:06;;;;;;;;;;;18.80;39.40;;;;;;5043017;28;19936;-63
2022/12/15 10:43:35;;;;;;;;;;;18.80;39.40;;;;;;5043091;28;20008;-63
2022/12/15 10:46:07;;;;;;;;;;;18.80;39.40;;;;;;5063673;28;20429;-62
2022/12/15 10:48:34;;;;;;;;;;;18.80;39.40;;;;;;5047344;28;20404;-62
2022/12/15 10:51:08;;;;;;;;;;;18.80;39.40;;;;;;5049196;28;19925;-62
2022/12/15 10:53:39;;;;;;;;;;;18.80;39.40;;;;;;5043217;28;19924;-63
2022/12/15 10:56:06;;;;;;;;;;;18.80;39.40;;;;;;5049820;28;19928;-65
2022/12/15 10:58:35;;;;;;;;;;;18.80;39.40;;;;;;5046838;28;20135;-62
2022/12/15 11:01:06;;;;;;;;;;;18.80;39.40;;;;;;5048316;28;19931;-61
2022/12/15 11:03:35;;;;;;;;;;;18.80;39.40;;;;;;5039761;28;19924;-62
2022/12/15 11:06:02;;;;;;;;;;;18.80;39.50;;;;;;5049377;28;19975;-63
2022/12/15 11:08:29;;;;;;;;;;;18.80;39.40;;;;;;5051377;28;19924;-63
2022/12/15 11:13:42;;;;;;;;;;;18.80;39.40;;;;;;5051352;28;19978;-62
2022/12/15 11:16:14;;;;;;;;;;;18.80;39.50;;;;;;5050472;28;19924;-63
2022/12/15 11:18:42;;;;;;;;;;;18.80;39.50;;;;;;5050263;28;19959;-62
2022/12/15 11:21:11;;;;;;;;;;;18.80;39.50;;;;;;5066291;28;19994;-64
2022/12/15 11:23:47;;;;;;;;;;;18.80;39.50;;;;;;5060847;28;20353;-61
2022/12/15 11:26:18;;;;;;;;;;;18.80;39.50;;;;;;5046859;28;19967;-62
2022/12/15 11:28:48;;;;;;;;;;;18.80;39.50;;;;;;5063199;28;19979;-62
2022/12/15 11:31:17;;;;;;;;;;;18.80;39.50;;;;;;5061967;28;19925;-62
2022/12/15 11:33:44;;;;;;;;;;;18.80;39.50;;;;;;5048906;28;20263;-66
2022/12/15 11:36:12;;;;;;;;;;;18.80;39.50;;;;;;5050361;28;19983;-62
2022/12/15 11:38:42;;;;;;;;;;;18.80;39.50;;;;;;5048388;28;19925;-62
2022/12/15 11:41:10;;;;;;;;;;;18.80;39.50;;;;;;5065641;28;19936;-62
2022/12/15 11:43:42;;;;;;;;;;;18.80;39.50;;;;;;5049437;28;20023;-60
2022/12/15 11:46:14;;;;;;;;;;;18.80;39.50;;;;;;5049539;28;19925;-64
2022/12/15 11:48:42;;;;;;;;;;;18.80;39.50;;;;;;5066344;28;19925;-63
2022/12/15 11:51:11;;;;;;;;;;;18.80;39.50;;;;;;5069209;28;19928;-63
2022/12/15 11:53:45;;;;;;;;;;;18.80;39.50;;;;;;5048867;28;20050;-63
2022/12/15 11:56:14;;;;;;;;;;;18.80;39.50;;;;;;5053032;28;19924;-63
2022/12/15 11:58:52;;;;;;;;;;;18.80;39.50;;;;;;5068778;28;19924;-62
2022/12/15 12:01:25;;;;;;;;;;;18.80;39.50;;;;;;5044874;28;19979;-62
2022/12/15 12:03:54;;;;;;;;;;;18.80;39.50;;;;;;5053896;28;19929;-62
2022/12/15 12:06:23;;;;;;;;;;;18.80;39.50;;;;;;5068460;28;19925;-62
2022/12/15 12:08:57;;;;;;;;;;;18.80;39.50;;;;;;5053289;28;19925;-61
2022/12/15 12:11:25;;;;;;;;;;;18.80;39.50;;;;;;5066065;28;19925;-64
2022/12/15 12:14:04;;;;;;;;;;;18.80;39.50;;;;;;5053032;28;20340;-65
2022/12/15 12:16:35;;;;;;;;;;;18.80;39.50;;;;;;5068824;28;20282;-61
2022/12/15 12:19:04;;;;;;;;;;;18.80;39.60;;;;;;5052909;28;19928;-61
2022/12/15 12:21:32;;;;;;;;;;;18.80;39.50;;;;;;5069134;28;19929;-62
2022/12/15 12:24:00;;;;;;;;;;;18.80;39.50;;;;;;5052373;28;19932;-62
2022/12/15 12:26:29;;;;;;;;;;;18.80;39.50;;;;;;5052209;28;20015;-63
2022/12/15 12:28:57;;;;;;;;;;;18.80;39.50;;;;;;5065905;28;19925;-61
2022/12/15 12:31:26;;;;;;;;;;;18.80;39.50;;;;;;5057017;28;19925;-65
2022/12/15 12:33:55;;;;;;;;;;;18.80;39.50;;;;;;5036979;28;20002;-61
2022/12/15 12:36:22;;;;;;;;;;;18.80;39.50;;;;;;5066013;28;19929;-61
2022/12/15 12:38:49;;;;;;;;;;;18.80;39.50;;;;;;5047964;28;19963;-62
2022/12/15 12:41:17;;;;;;;;;;;18.80;39.60;;;;;;5052170;28;20419;-62
2022/12/15 12:43:45;;;;;;;;;;;18.80;39.50;;;;;;5053409;28;19925;-62
2022/12/15 12:46:13;;;;;;;;;;;18.80;39.60;;;;;;5052865;28;19947;-64
2022/12/15 12:48:41;;;;;;;;;;;18.80;39.50;;;;;;5048624;28;20002;-63
2022/12/15 12:51:21;;;;;;;;;;;18.80;39.60;;;;;;5052214;28;19925;-63
2022/12/15 12:53:48;;;;;;;;;;;18.80;39.50;;;;;;5057958;28;19937;-62
2022/12/15 12:56:35;;;;;;;;;;;18.80;39.50;;;;;;5068700;28;19971;-63
2022/12/15 12:59:06;;;;;;;;;;;18.80;39.50;;;;;;5047186;28;19932;-62
2022/12/15 13:01:33;;;;;;;;;;;18.80;39.60;;;;;;5068103;28;19935;-61
2022/12/15 13:04:07;;;;;;;;;;;18.80;39.50;;;;;;5053139;28;19931;-62
2022/12/15 13:06:53;;;;;;;;;;;18.80;39.60;;;;;;5066543;28;19960;-62
2022/12/15 13:09:22;;;;;;;;;;;18.80;39.50;;;;;;5052511;28;20321;-61
2022/12/15 13:11:56;;;;;;;;;;;18.90;39.60;;;;;;5047857;28;20030;-63
2022/12/15 13:14:28;;;;;;;;;;;18.80;39.60;;;;;;5051718;28;20036;-62
2022/12/15 13:16:55;;;;;;;;;;;18.80;39.50;;;;;;5052816;28;19951;-61
2022/12/15 13:19:55;;;;;;;;;;;18.80;39.60;;;;;;5051760;28;19925;-61
2022/12/15 13:22:24;;;;;;;;;;;18.80;39.60;;;;;;5062318;28;19924;-62
2022/12/15 13:24:51;;;;;;;;;;;18.80;39.50;;;;;;5056319;28;19929;-62
2022/12/15 13:27:18;;;;;;;;;;;18.80;39.50;;;;;;5050872;28;19929;-62
2022/12/15 13:29:55;;;;;;;;;;;18.90;39.60;;;;;;5067136;28;19929;-65
2022/12/15 13:32:25;;;;;;;;;;;18.90;39.60;;;;;;5048352;28;19924;-62
2022/12/15 13:34:52;;;;;;;;;;;18.90;39.60;;;;;;5051853;28;19925;-62
2022/12/15 13:37:34;;;;;;;;;;;18.90;39.60;;;;;;5050958;28;20106;-62
2022/12/15 13:40:16;;;;;;;;;;;18.90;39.60;;;;;;5052282;28;19925;-62
2022/12/15 13:42:44;;;;;;;;;;;18.90;39.60;;;;;;5050138;28;20019;-61
2022/12/15 13:45:26;;;;;;;;;;;18.90;39.70;;;;;;5050291;28;19929;-62
2022/12/15 13:47:54;;;;;;;;;;;18.90;39.60;;;;;;5053149;28;19972;-63
2022/12/15 13:50:27;;;;;;;;;;;18.90;39.70;;;;;;5058693;28;19925;-61
2022/12/15 13:52:54;;;;;;;;;;;18.90;39.70;;;;;;5068165;28;19986;-62
2022/12/15 13:55:22;;;;;;;;;;;18.90;39.70;;;;;;5050527;28;19932;-62
2022/12/15 13:57:51;;;;;;;;;;;18.90;39.70;;;;;;5050763;28;19929;-61
2022/12/15 14:00:18;;;;;;;;;;;18.90;39.70;;;;;;5056660;28;19928;-66
2022/12/15 14:02:45;;;;;;;;;;;18.90;39.70;;;;;;5064878;28;19943;-62
2022/12/15 14:05:13;;;;;;;;;;;18.90;40.30;;;;;;5050715;28;19951;-60
2022/12/15 14:07:40;;;;;;;;;;;18.90;39.70;;;;;;5050462;28;19925;-61
2022/12/15 14:10:08;;;;;;;;;;;18.90;39.70;;;;;;5052211;28;19924;-63
2022/12/15 14:12:36;;;;;;;;;;;18.90;39.70;;;;;;5066614;28;19972;-63
2022/12/15 14:15:03;;;;;;;;;;;18.90;39.70;;;;;;5050124;28;19928;-63
2022/12/15 14:17:32;;;;;;;;;;;18.80;39.70;;;;;;5049928;28;19924;-64
2022/12/15 14:20:05;;;;;;;;;;;18.90;39.70;;;;;;5052460;28;19936;-63
2022/12/15 14:22:32;;;;;;;;;;;18.90;39.80;;;;;;5066033;28;19924;-63
2022/12/15 14:25:00;;;;;;;;;;;18.90;39.70;;;;;;5065124;28;19932;-63
2022/12/15 14:27:27;;;;;;;;;;;18.90;39.80;;;;;;5051914;28;19928;-62
2022/12/15 14:30:09;;;;;;;;;;;18.90;39.80;;;;;;5051886;28;19925;-63
2022/12/15 14:32:39;;;;;;;;;;;18.90;39.80;;;;;;5049649;28;20201;-61
2022/12/15 14:35:06;;;;;;;;;;;18.90;39.80;;;;;;5049293;28;19929;-64
2022/12/15 14:37:33;;;;;;;;;;;18.90;39.80;;;;;;5048616;28;19963;-61
2022/12/15 14:40:00;;;;;;;;;;;18.90;39.80;;;;;;5061613;28;19933;-67
2022/12/15 14:42:27;;;;;;;;;;;18.80;39.60;;;;;;5062692;28;19982;-62
2022/12/15 14:44:54;;;;;;;;;;;18.90;39.80;;;;;;5047778;28;19970;-62
2022/12/15 14:47:22;;;;;;;;;;;18.90;39.70;;;;;;5047811;28;20008;-62
2022/12/15 14:49:50;;;;;;;;;;;18.90;39.80;;;;;;5048747;28;19931;-62
2022/12/15 14:52:21;;;;;;;;;;;18.90;39.80;;;;;;5051454;28;20362;-62
2022/12/15 14:54:51;;;;;;;;;;;18.90;39.80;;;;;;5051936;28;19925;-62
2022/12/15 14:57:20;;;;;;;;;;;18.90;39.80;;;;;;5035224;28;19925;-64
2022/12/15 14:59:47;;;;;;;;;;;18.90;39.80;;;;;;5030436;28;19933;-62
2022/12/15 15:02:21;;;;;;;;;;;18.90;39.80;;;;;;5029914;28;20333;-62
2022/12/15 15:04:58;;;;;;;;;;;18.90;39.80;;;;;;5030005;28;19925;-64
2022/12/15 15:07:25;;;;;;;;;;;18.90;39.80;;;;;;5030128;28;20008;-67
2022/12/15 15:09:52;;;;;;;;;;;18.90;39.80;;;;;;5046522;28;20011;-61
2022/12/15 15:12:19;;;;;;;;;;;18.90;39.80;;;;;;5046842;28;19925;-63
2022/12/15 15:14:46;;;;;;;;;;;18.90;39.80;;;;;;5034268;28;19929;-62
2022/12/15 15:17:15;;;;;;;;;;;18.80;39.80;;;;;;5051211;28;19929;-67
2022/12/15 15:19:45;;;;;;;;;;;18.90;39.80;;;;;;5065996;28;19940;-64
2022/12/15 15:22:18;;;;;;;;;;;18.90;39.90;;;;;;5066478;28;19932;-62
2022/12/15 15:24:50;;;;;;;;;;;18.80;39.80;;;;;;5070338;28;19929;-64
2022/12/15 15:27:26;;;;;;;;;;;18.80;39.80;;;;;;5070640;28;19975;-65
2022/12/15 15:29:53;;;;;;;;;;;18.90;39.90;;;;;;5068509;28;19924;-62
2022/12/15 15:32:20;;;;;;;;;;;18.90;39.90;;;;;;5033778;28;19991;-63
2022/12/15 15:34:47;;;;;;;;;;;18.80;39.80;;;;;;5033472;28;20003;-62
2022/12/15 15:37:17;;;;;;;;;;;18.80;39.80;;;;;;5049752;28;19925;-62
2022/12/15 15:39:44;;;;;;;;;;;18.90;39.90;;;;;;5050591;28;19975;-61
2022/12/15 15:42:12;;;;;;;;;;;18.80;39.80;;;;;;5033428;28;20032;-63
2022/12/15 15:44:39;;;;;;;;;;;18.80;39.80;;;;;;5033162;28;20027;-62
2022/12/15 15:47:05;;;;;;;;;;;18.80;39.80;;;;;;5054294;28;19940;-62
2022/12/15 15:49:32;;;;;;;;;;;18.80;39.80;;;;;;5069220;28;19925;-62
2022/12/15 15:51:59;;;;;;;;;;;18.90;39.90;;;;;;5054692;28;19925;-63
2022/12/15 15:54:28;;;;;;;;;;;18.80;39.80;;;;;;5053852;28;19932;-63
2022/12/15 15:56:55;;;;;;;;;;;18.80;39.80;;;;;;5053647;28;19932;-64
2022/12/15 15:59:23;;;;;;;;;;;18.90;39.90;;;;;;5070167;28;19929;-63
2022/12/15 16:01:52;;;;;;;;;;;18.80;39.90;;;;;;5069702;28;19931;-62
2022/12/15 16:04:19;;;;;;;;;;;18.80;39.80;;;;;;5052622;28;19925;-67
2022/12/15 16:06:46;;;;;;;;;;;18.80;39.90;;;;;;5038990;28;19936;-63
2022/12/15 16:09:13;;;;;;;;;;;18.80;39.80;;;;;;5032791;28;19925;-65
2022/12/15 16:11:41;;;;;;;;;;;18.90;40.00;;;;;;5034370;28;20003;-62
2022/12/15 16:14:10;;;;;;;;;;;18.80;39.90;;;;;;5049638;28;19991;-63
2022/12/15 16:16:37;;;;;;;;;;;18.80;39.90;;;;;;5033656;28;19968;-62
2022/12/15 16:19:04;;;;;;;;;;;18.80;39.90;;;;;;5033542;28;20460;-63
2022/12/15 16:21:30;;;;;;;;;;;18.80;39.80;;;;;;5049001;28;19949;-63
2022/12/15 16:23:57;;;;;;;;;;;18.80;39.80;;;;;;5033354;28;19925;-64
2022/12/15 16:26:25;;;;;;;;;;;18.80;39.90;;;;;;5060022;28;20448;-64
2022/12/15 16:28:54;;;;;;;;;;;18.80;39.80;;;;;;5052042;28;19971;-68
2022/12/15 16:31:27;;;;;;;;;;;18.80;39.90;;;;;;5055017;28;19929;-64
2022/12/15 16:33:54;;;;;;;;;;;18.80;39.90;;;;;;5047655;28;20010;-62
2022/12/15 16:36:20;;;;;;;;;;;18.80;39.90;;;;;;5032157;28;19944;-66
2022/12/15 16:38:47;;;;;;;;;;;18.80;39.90;;;;;;5048763;28;19925;-67
2022/12/15 16:41:15;;;;;;;;;;;18.80;39.90;;;;;;5057371;28;19925;-64
2022/12/15 16:43:42;;;;;;;;;;;18.80;39.90;;;;;;5068215;28;19983;-62
2022/12/15 16:46:10;;;;;;;;;;;18.80;39.90;;;;;;5059634;28;19929;-65
2022/12/15 16:48:37;;;;;;;;;;;18.80;39.90;;;;;;5033216;28;20390;-62
2022/12/15 16:51:05;;;;;;;;;;;18.80;39.90;;;;;;5033285;28;19925;-62
2022/12/15 16:53:32;;;;;;;;;;;18.80;39.90;;;;;;5047669;28;19925;-61
2022/12/15 16:55:59;;;;;;;;;;;18.80;39.90;;;;;;5065573;28;19978;-65